createdAt,value
2018-03-29T00:01:42.689Z,20.73
2018-03-29T00:04:12.972Z,19.23
2018-03-29T00:06:42.949Z,21.20
2018-03-29T00:09:12.488Z,20.37
2018-03-29T00:11:42.150Z,22.77
2018-03-29T00:14:12.904Z,20.30
2018-03-29T00:16:43.041Z,20.23
2018-03-29T00:19:12.606Z,18.33
2018-03-29T00:21:45.425Z,16.20
2018-03-29T00:24:15.764Z,16.20
2018-03-29T00:26:49.201Z,19.00
2018-03-29T00:29:19.712Z,15.87
2018-03-29T00:31:52.743Z,18.07
2018-03-29T00:34:23.032Z,15.50
2018-03-29T00:36:54.142Z,16.77
2018-03-29T00:39:23.840Z,17.20
2018-03-29T00:42:06.679Z,17.30
2018-03-29T00:44:36.937Z,18.77
2018-03-29T00:47:07.335Z,20.43
2018-03-29T00:49:37.597Z,23.77
2018-03-29T00:52:07.604Z,21.17
2018-03-29T00:54:38.249Z,20.97
2018-03-29T00:57:10.247Z,20.80
2018-03-29T00:59:41.140Z,19.03
2018-03-29T01:02:14.252Z,23.77
2018-03-29T01:04:44.574Z,21.23
2018-03-29T01:07:14.881Z,23.10
2018-03-29T01:09:44.564Z,20.90
2018-03-29T01:12:16.662Z,22.77
2018-03-29T01:14:47.282Z,23.17
2018-03-29T01:17:20.780Z,21.97
2018-03-29T01:19:51.788Z,23.67
2018-03-29T01:22:21.956Z,22.23
2018-03-29T01:24:51.931Z,23.17
2018-03-29T01:27:24.940Z,18.77
2018-03-29T01:29:55.633Z,21.37
2018-03-29T01:32:35.902Z,22.30
2018-03-29T01:35:07.038Z,22.30
2018-03-29T01:37:37.214Z,24.63
2018-03-29T01:40:07.339Z,21.27
2018-03-29T01:42:38.117Z,22.30
2018-03-29T01:45:08.120Z,21.10
2018-03-29T01:47:38.057Z,24.37
2018-03-29T01:50:09.296Z,20.43
2018-03-29T01:52:39.552Z,15.67
2018-03-29T01:55:10.087Z,18.27
2018-03-29T01:57:42.103Z,18.10
2018-03-29T02:00:12.463Z,21.30
2018-03-29T02:02:43.148Z,20.53
2018-03-29T02:05:14.257Z,21.93
2018-03-29T02:07:45.876Z,20.93
2018-03-29T02:10:16.509Z,21.07
2018-03-29T02:12:47.354Z,23.80
2018-03-29T02:15:18.030Z,24.73
2018-03-29T02:17:50.026Z,23.47
2018-03-29T02:20:20.573Z,20.43
2018-03-29T02:22:51.985Z,22.63
2018-03-29T02:25:22.394Z,24.50
2018-03-29T02:27:54.710Z,21.97
2018-03-29T02:30:28.745Z,23.80
2018-03-29T02:32:58.838Z,25.50
2018-03-29T02:35:29.555Z,21.57
2018-03-29T02:38:00.979Z,20.90
2018-03-29T02:40:30.899Z,21.23
2018-03-29T02:43:03.793Z,23.70
2018-03-29T02:45:34.513Z,20.77
2018-03-29T02:48:06.715Z,21.43
2018-03-29T02:50:37.810Z,23.60
2018-03-29T02:53:21.063Z,25.67
2018-03-29T02:55:51.141Z,21.80
2018-03-29T02:58:21.606Z,21.97
2018-03-29T03:00:51.626Z,24.67
2018-03-29T03:03:21.892Z,23.43
2018-03-29T03:05:52.018Z,21.03
2018-03-29T03:08:22.542Z,23.93
2018-03-29T03:10:53.760Z,25.03
2018-03-29T03:13:24.516Z,24.20
2018-03-29T03:15:55.624Z,21.63
2018-03-29T03:18:26.291Z,23.90
2018-03-29T03:20:57.529Z,23.17
2018-03-29T03:23:28.810Z,25.50
2018-03-29T03:25:58.775Z,23.97
2018-03-29T03:28:29.530Z,25.33
2018-03-29T03:31:00.478Z,25.93
2018-03-29T03:33:31.786Z,25.53
2018-03-29T03:36:02.664Z,22.70
2018-03-29T03:38:33.684Z,24.90
2018-03-29T03:41:04.360Z,25.37
2018-03-29T03:43:35.312Z,24.57
2018-03-29T03:46:05.475Z,25.77
2018-03-29T03:48:36.410Z,27.13
2018-03-29T03:51:07.302Z,26.30
2018-03-29T03:53:37.735Z,31.23
2018-03-29T03:56:08.343Z,29.77
2018-03-29T03:58:39.690Z,31.53
2018-03-29T04:01:09.894Z,30.33
2018-03-29T04:03:42.417Z,28.73
2018-03-29T04:06:13.389Z,30.93
2018-03-29T04:08:44.278Z,27.70
2018-03-29T04:11:15.734Z,30.53
2018-03-29T04:13:47.440Z,35.83
2018-03-29T04:16:18.648Z,35.57
2018-03-29T04:18:51.944Z,34.97
2018-03-29T04:21:22.972Z,33.10
2018-03-29T04:23:54.327Z,34.57
2018-03-29T04:26:25.247Z,34.30
2018-03-29T04:28:56.613Z,37.40
2018-03-29T04:31:27.484Z,35.37
2018-03-29T04:34:02.237Z,36.00
2018-03-29T04:36:33.108Z,37.53
2018-03-29T04:39:07.262Z,33.03
2018-03-29T04:41:38.850Z,37.63
2018-03-29T04:44:09.751Z,33.83
2018-03-29T04:46:40.908Z,36.20
2018-03-29T04:49:13.453Z,35.83
2018-03-29T04:51:43.928Z,38.50
2018-03-29T04:54:15.145Z,36.73
2018-03-29T04:56:45.971Z,35.43
2018-03-29T04:59:16.927Z,34.57
2018-03-29T05:01:47.222Z,38.07
2018-03-29T05:04:20.871Z,37.87
2018-03-29T05:06:52.432Z,33.20
2018-03-29T05:09:24.059Z,36.23
2018-03-29T05:11:54.961Z,35.07
2018-03-29T05:14:25.605Z,31.73
2018-03-29T05:16:55.527Z,34.57
2018-03-29T05:19:26.583Z,36.70
2018-03-29T05:21:57.776Z,32.80
2018-03-29T05:24:28.796Z,38.47
2018-03-29T05:26:58.791Z,33.70
2018-03-29T05:29:31.201Z,35.67
2018-03-29T05:32:01.102Z,30.23
2018-03-29T05:34:34.000Z,30.33
2018-03-29T05:37:04.190Z,31.00
2018-03-29T05:39:37.349Z,38.97
2018-03-29T05:42:07.319Z,29.33
2018-03-29T05:44:38.899Z,39.37
2018-03-29T05:47:08.477Z,32.50
2018-03-29T05:49:42.149Z,33.90
2018-03-29T05:52:11.894Z,32.17
2018-03-29T05:54:45.427Z,28.93
2018-03-29T05:57:15.412Z,27.03
2018-03-29T05:59:47.093Z,26.67
2018-03-29T06:02:16.862Z,30.57
2018-03-29T06:04:50.119Z,26.27
2018-03-29T06:07:20.544Z,22.60
2018-03-29T06:09:52.892Z,30.57
2018-03-29T06:12:23.874Z,23.70
2018-03-29T06:15:01.429Z,26.60
2018-03-29T06:17:31.739Z,27.90
2018-03-29T06:20:01.616Z,30.07
2018-03-29T06:22:31.582Z,28.97
2018-03-29T06:25:01.891Z,24.83
2018-03-29T06:27:33.065Z,26.27
2018-03-29T06:30:04.451Z,25.33
2018-03-29T06:32:35.198Z,22.73
2018-03-29T06:35:07.428Z,21.50
2018-03-29T06:37:38.428Z,21.40
2018-03-29T06:40:13.826Z,24.13
2018-03-29T06:42:43.320Z,21.97
2018-03-29T06:45:16.566Z,23.27
2018-03-29T06:47:46.901Z,22.17
2018-03-29T06:50:16.910Z,23.40
2018-03-29T06:52:46.564Z,23.90
2018-03-29T06:55:20.208Z,27.20
2018-03-29T06:57:49.843Z,38.63
2018-03-29T07:00:21.788Z,26.00
2018-03-29T07:02:51.247Z,19.93
2018-03-29T07:05:33.923Z,22.60
2018-03-29T07:08:03.826Z,16.07
2018-03-29T07:10:35.672Z,19.13
2018-03-29T07:13:05.779Z,17.97
2018-03-29T07:15:35.589Z,18.70
2018-03-29T07:18:05.350Z,17.13
2018-03-29T07:20:35.529Z,18.33
2018-03-29T07:23:05.326Z,17.70
2018-03-29T07:25:34.821Z,15.80
2018-03-29T07:28:05.700Z,19.10
2018-03-29T07:30:36.348Z,12.83
2018-03-29T07:33:06.514Z,17.87
2018-03-29T07:35:39.406Z,14.00
2018-03-29T07:38:09.232Z,12.67
2018-03-29T07:40:42.592Z,14.30
2018-03-29T07:43:13.637Z,12.13
2018-03-29T07:45:44.539Z,12.13
2018-03-29T07:48:15.166Z,6.70
2018-03-29T07:50:47.223Z,10.40
2018-03-29T07:53:17.272Z,10.70
2018-03-29T07:55:50.624Z,7.13
2018-03-29T07:58:20.790Z,7.27
2018-03-29T08:00:54.244Z,7.63
2018-03-29T08:03:23.770Z,5.97
2018-03-29T08:05:58.157Z,6.13
2018-03-29T08:08:28.430Z,6.33
2018-03-29T08:11:00.056Z,6.83
2018-03-29T08:13:29.456Z,7.53
2018-03-29T08:16:11.534Z,11.43
2018-03-29T08:18:41.614Z,6.27
2018-03-29T08:21:11.094Z,6.87
2018-03-29T08:23:41.736Z,7.90
2018-03-29T08:26:11.988Z,7.63
2018-03-29T08:28:42.224Z,6.60
2018-03-29T08:31:13.760Z,7.33
2018-03-29T08:33:43.573Z,7.37
2018-03-29T08:36:16.763Z,8.60
2018-03-29T08:38:46.503Z,7.30
2018-03-29T08:41:17.327Z,7.63
2018-03-29T08:43:48.436Z,10.07
2018-03-29T08:46:20.067Z,7.27
2018-03-29T08:48:50.441Z,8.30
2018-03-29T08:51:21.945Z,9.73
2018-03-29T08:53:52.473Z,9.03
2018-03-29T08:56:24.812Z,8.70
2018-03-29T08:58:54.342Z,6.90
2018-03-29T09:01:26.619Z,7.97
2018-03-29T09:03:56.999Z,6.67
2018-03-29T09:06:30.303Z,9.67
2018-03-29T09:09:00.024Z,11.93
2018-03-29T09:11:30.980Z,7.33
2018-03-29T09:14:00.310Z,7.27
2018-03-29T09:16:35.903Z,8.47
2018-03-29T09:19:05.401Z,7.53
2018-03-29T09:21:37.849Z,9.13
2018-03-29T09:24:08.458Z,5.67
2018-03-29T09:26:39.542Z,7.37
2018-03-29T09:29:09.106Z,7.50
2018-03-29T09:31:52.264Z,6.63
2018-03-29T09:34:22.478Z,6.90
2018-03-29T09:36:52.158Z,12.97
2018-03-29T09:39:22.281Z,5.90
2018-03-29T09:41:52.739Z,6.83
2018-03-29T09:44:23.206Z,10.40
2018-03-29T09:46:52.806Z,7.27
2018-03-29T09:49:22.298Z,6.20
2018-03-29T09:51:55.395Z,9.03
2018-03-29T09:54:24.904Z,7.43
2018-03-29T09:56:58.206Z,7.50
2018-03-29T09:59:28.661Z,7.60
2018-03-29T10:02:14.729Z,8.13
2018-03-29T10:04:49.832Z,7.60
2018-03-29T10:07:23.359Z,9.57
2018-03-29T10:09:54.046Z,7.90
2018-03-29T10:12:23.635Z,7.50
2018-03-29T10:14:53.505Z,8.17
2018-03-29T10:17:23.540Z,6.30
2018-03-29T10:19:53.458Z,6.23
2018-03-29T10:22:23.708Z,7.93
2018-03-29T10:24:53.238Z,6.13
2018-03-29T10:27:23.485Z,7.97
2018-03-29T10:29:53.254Z,11.53
2018-03-29T10:32:23.901Z,10.57
2018-03-29T10:34:53.465Z,10.00
2018-03-29T10:37:23.492Z,6.90
2018-03-29T10:39:53.548Z,6.53
2018-03-29T10:42:25.474Z,6.53
2018-03-29T10:44:56.108Z,12.80
2018-03-29T10:47:27.636Z,8.27
2018-03-29T10:49:58.678Z,5.53
2018-03-29T10:52:30.087Z,5.77
2018-03-29T10:55:01.182Z,7.40
2018-03-29T10:57:32.622Z,7.07
2018-03-29T11:00:04.238Z,7.27
2018-03-29T11:02:37.008Z,5.40
2018-03-29T11:05:06.614Z,11.70
2018-03-29T11:07:37.994Z,4.37
2018-03-29T11:10:08.919Z,7.97
2018-03-29T11:12:41.288Z,5.27
2018-03-29T11:15:10.685Z,8.07
2018-03-29T11:17:43.721Z,4.57
2018-03-29T11:20:13.897Z,4.13
2018-03-29T11:22:47.761Z,5.40
2018-03-29T11:25:18.081Z,3.07
2018-03-29T11:27:52.445Z,2.53
2018-03-29T11:30:21.817Z,4.77
2018-03-29T11:32:55.839Z,3.07
2018-03-29T11:35:25.991Z,4.17
2018-03-29T11:37:59.267Z,6.03
2018-03-29T11:40:28.737Z,3.97
2018-03-29T11:43:01.309Z,3.37
2018-03-29T11:45:30.718Z,4.53
2018-03-29T11:48:12.784Z,8.63
2018-03-29T11:50:43.371Z,3.50
2018-03-29T11:53:13.601Z,8.57
2018-03-29T11:55:43.740Z,4.37
2018-03-29T11:58:14.634Z,2.80
2018-03-29T12:00:43.987Z,3.97
2018-03-29T12:03:15.076Z,4.63
2018-03-29T12:05:44.797Z,2.80
2018-03-29T12:08:14.694Z,3.30
2018-03-29T12:10:44.083Z,4.50
2018-03-29T12:13:17.224Z,3.07
2018-03-29T12:15:47.593Z,2.40
2018-03-29T12:18:19.590Z,8.30
2018-03-29T12:20:49.875Z,3.33
2018-03-29T12:23:22.516Z,6.20
2018-03-29T12:25:52.037Z,3.50
2018-03-29T12:28:24.026Z,3.53
2018-03-29T12:30:54.206Z,3.70
2018-03-29T12:33:26.329Z,3.57
2018-03-29T12:35:55.964Z,3.43
2018-03-29T12:38:38.668Z,3.87
2018-03-29T12:41:08.498Z,3.33
2018-03-29T12:43:40.884Z,5.10
2018-03-29T12:46:10.801Z,4.77
2018-03-29T12:48:41.533Z,5.23
2018-03-29T12:51:11.387Z,5.27
2018-03-29T12:53:41.430Z,5.17
2018-03-29T12:56:15.915Z,5.20
2018-03-29T12:58:46.548Z,5.90
2018-03-29T13:01:16.847Z,5.57
2018-03-29T13:03:46.860Z,7.07
2018-03-29T13:06:16.327Z,8.13
2018-03-29T13:08:46.935Z,7.37
2018-03-29T13:11:16.549Z,5.80
2018-03-29T13:13:46.959Z,5.97
2018-03-29T13:16:17.997Z,4.77
2018-03-29T13:18:50.106Z,5.80
2018-03-29T13:21:19.912Z,5.17
2018-03-29T13:23:53.639Z,6.67
2018-03-29T13:26:23.514Z,5.37
2018-03-29T13:29:06.204Z,5.57
2018-03-29T13:31:36.784Z,4.87
2018-03-29T13:34:06.995Z,7.23
2018-03-29T13:36:36.495Z,4.03
2018-03-29T13:39:07.542Z,3.20
2018-03-29T13:41:37.030Z,3.40
2018-03-29T13:44:13.744Z,3.10
2018-03-29T13:46:44.002Z,2.43
2018-03-29T13:49:14.202Z,2.00
2018-03-29T13:51:44.415Z,3.00
2018-03-29T13:54:15.462Z,3.93
2018-03-29T13:56:46.510Z,2.60
2018-03-29T13:59:18.578Z,5.00
2018-03-29T14:01:48.400Z,3.87
2018-03-29T14:04:19.898Z,2.40
2018-03-29T14:06:49.340Z,3.90
2018-03-29T14:09:22.404Z,3.50
2018-03-29T14:11:52.308Z,3.23
2018-03-29T14:14:25.713Z,7.60
2018-03-29T14:16:55.526Z,2.80
2018-03-29T14:19:27.601Z,3.73
2018-03-29T14:21:57.800Z,5.80
2018-03-29T14:24:28.787Z,3.07
2018-03-29T14:26:59.415Z,3.43
2018-03-29T14:29:31.677Z,2.33
2018-03-29T14:32:01.092Z,4.30
2018-03-29T14:34:33.681Z,4.70
2018-03-29T14:37:04.270Z,3.57
2018-03-29T14:39:37.187Z,3.00
2018-03-29T14:42:07.408Z,2.97
2018-03-29T14:44:39.577Z,3.87
2018-03-29T14:47:09.583Z,2.60
2018-03-29T14:49:43.672Z,2.57
2018-03-29T14:52:14.743Z,2.07
2018-03-29T14:54:45.479Z,3.90
2018-03-29T14:57:16.284Z,4.13
2018-03-29T14:59:48.973Z,3.17
2018-03-29T15:02:19.292Z,3.37
2018-03-29T15:04:49.899Z,3.07
2018-03-29T15:07:20.424Z,6.80
2018-03-29T15:09:54.264Z,4.00
2018-03-29T15:13:53.988Z,5.17
2018-03-29T15:16:24.680Z,3.00
2018-03-29T15:19:07.938Z,3.43
2018-03-29T15:21:37.817Z,4.13
2018-03-29T15:24:07.314Z,3.07
2018-03-29T15:26:36.889Z,1.37
2018-03-29T15:29:07.175Z,1.90
2018-03-29T15:31:40.346Z,3.40
2018-03-29T15:34:10.005Z,2.03
2018-03-29T15:36:40.961Z,4.30
2018-03-29T15:39:12.208Z,2.23
2018-03-29T15:41:41.899Z,2.23
2018-03-29T15:44:12.760Z,3.17
2018-03-29T15:46:42.066Z,2.00
2018-03-29T15:49:15.232Z,3.13
2018-03-29T15:51:45.248Z,5.10
2018-03-29T15:54:18.657Z,3.33
2018-03-29T15:56:49.023Z,3.13
2018-03-29T15:59:22.084Z,3.60
2018-03-29T16:01:51.506Z,2.73
2018-03-29T16:04:22.542Z,5.97
2018-03-29T16:06:52.463Z,1.73
2018-03-29T16:09:34.734Z,4.10
2018-03-29T16:12:04.276Z,2.00
2018-03-29T16:14:33.968Z,2.03
2018-03-29T16:17:04.616Z,4.33
2018-03-29T16:19:35.026Z,1.60
2018-03-29T16:22:04.500Z,1.30
2018-03-29T16:24:34.747Z,2.80
2018-03-29T16:27:04.260Z,3.50
2018-03-29T16:29:46.093Z,3.33
2018-03-29T16:32:16.916Z,4.03
2018-03-29T16:34:47.106Z,3.27
2018-03-29T16:37:16.583Z,2.20
2018-03-29T16:39:46.323Z,1.80
2018-03-29T16:42:15.721Z,2.60
2018-03-29T16:44:49.949Z,2.10
2018-03-29T16:47:19.891Z,3.27
2018-03-29T16:49:50.187Z,1.70
2018-03-29T16:52:19.807Z,3.30
2018-03-29T16:54:53.397Z,5.60
2018-03-29T16:57:23.922Z,2.40
2018-03-29T17:00:06.205Z,2.23
2018-03-29T17:02:35.822Z,2.40
2018-03-29T17:05:05.591Z,2.17
2018-03-29T17:07:36.123Z,2.93
2018-03-29T17:10:06.804Z,5.03
2018-03-29T17:12:36.062Z,6.30
2018-03-29T17:15:06.960Z,7.50
2018-03-29T17:17:37.113Z,8.23
2018-03-29T17:20:12.166Z,6.37
2018-03-29T17:22:41.681Z,2.63
2018-03-29T17:25:15.285Z,1.97
2018-03-29T17:27:45.426Z,3.93
2018-03-29T17:30:17.209Z,2.27
2018-03-29T17:32:47.489Z,3.23
2018-03-29T17:35:20.264Z,1.73
2018-03-29T17:37:50.308Z,2.60
2018-03-29T17:40:21.474Z,2.67
2018-03-29T17:42:50.749Z,4.10
2018-03-29T17:58:29.276Z,3.57
2018-03-29T18:00:59.362Z,3.27
2018-03-29T18:03:31.991Z,3.43
2018-03-29T18:06:01.846Z,10.63
2018-03-29T18:08:35.416Z,9.87
2018-03-29T18:11:05.195Z,7.33
2018-03-29T18:13:36.489Z,5.87
2018-03-29T18:16:06.728Z,5.43
2018-03-29T18:18:39.205Z,16.07
2018-03-29T18:21:08.700Z,5.57
2018-03-29T18:23:41.714Z,7.43
2018-03-29T18:26:11.027Z,7.23
2018-03-29T18:28:44.171Z,7.50
2018-03-29T18:31:14.342Z,7.17
2018-03-29T18:33:56.213Z,6.90
2018-03-29T18:36:25.929Z,13.53
2018-03-29T18:52:08.696Z,5.83
2018-03-29T18:54:39.063Z,4.23
2018-03-29T18:57:09.057Z,4.77
2018-03-29T18:59:39.083Z,6.10
2018-03-29T19:02:09.339Z,7.93
2018-03-29T19:04:41.035Z,5.97
2018-03-29T19:07:11.804Z,7.77
2018-03-29T19:09:41.458Z,12.37
2018-03-29T19:12:11.147Z,7.33
2018-03-29T19:14:41.240Z,7.33
2018-03-29T19:17:14.472Z,9.13
2018-03-29T19:19:45.085Z,7.93
2018-03-29T19:22:16.323Z,6.33
2018-03-29T19:24:47.225Z,10.87
2018-03-29T19:27:18.438Z,6.70
2018-03-29T19:29:49.577Z,7.57
2018-03-29T19:32:20.676Z,9.77
2018-03-29T19:34:50.050Z,7.93
2018-03-29T19:37:25.375Z,15.00
2018-03-29T19:39:55.103Z,10.90
2018-03-29T19:42:25.267Z,9.90
2018-03-29T19:44:56.100Z,7.87
2018-03-29T19:47:28.937Z,8.77
2018-03-29T19:49:59.500Z,9.63
2018-03-29T19:52:29.944Z,12.73
2018-03-29T19:54:59.459Z,9.30
2018-03-29T19:57:33.352Z,9.20
2018-03-29T20:00:04.064Z,10.43
2018-03-29T20:02:35.469Z,8.30
2018-03-29T20:05:06.305Z,9.40
2018-03-29T20:07:37.378Z,8.43
2018-03-29T20:10:06.878Z,9.07
2018-03-29T20:12:49.065Z,10.70
2018-03-29T20:15:19.223Z,7.33
2018-03-29T20:17:49.569Z,10.83
2018-03-29T20:20:20.086Z,10.60
2018-03-29T20:22:49.607Z,10.80
2018-03-29T20:25:20.270Z,9.40
2018-03-29T20:27:49.943Z,10.00
2018-03-29T20:30:20.382Z,9.33
2018-03-29T20:32:51.198Z,6.40
2018-03-29T20:35:20.572Z,7.23
2018-03-29T20:37:53.821Z,5.53
2018-03-29T20:40:23.644Z,5.97
2018-03-29T20:43:06.109Z,5.47
2018-03-29T20:45:36.287Z,6.43
2018-03-29T20:48:05.902Z,8.17
2018-03-29T20:50:36.604Z,5.10
2018-03-29T20:53:07.908Z,6.40
2018-03-29T20:55:38.924Z,7.47
2018-03-29T20:58:08.717Z,5.90
2018-03-29T21:00:38.980Z,5.27
2018-03-29T21:03:09.919Z,7.33
2018-03-29T21:05:42.153Z,6.70
2018-03-29T21:08:12.909Z,5.60
2018-03-29T21:10:42.502Z,7.07
2018-03-29T21:13:15.924Z,5.27
2018-03-29T21:15:45.757Z,6.23
2018-03-29T21:18:17.305Z,6.43
2018-03-29T21:20:48.159Z,6.10
2018-03-29T21:23:19.514Z,8.93
2018-03-29T21:25:48.958Z,6.50
2018-03-29T21:28:44.356Z,5.23
2018-03-29T21:31:19.282Z,7.93
2018-03-29T21:33:49.002Z,5.23
2018-03-29T21:36:22.946Z,5.47
2018-03-29T21:38:52.925Z,6.40
2018-03-29T21:41:27.406Z,4.13
2018-03-29T21:43:57.625Z,3.03
2018-03-29T21:46:29.191Z,5.33
2018-03-29T21:48:59.454Z,9.40
2018-03-29T21:51:32.590Z,4.77
2018-03-29T21:54:02.088Z,5.07
2018-03-29T21:56:36.123Z,4.63
2018-03-29T21:59:05.768Z,4.90
2018-03-29T22:01:37.191Z,6.20
2018-03-29T22:04:07.234Z,5.47
2018-03-29T22:06:40.351Z,5.23
2018-03-29T22:09:10.389Z,5.67
2018-03-29T22:11:43.826Z,12.53
2018-03-29T22:14:13.618Z,8.30
2018-03-29T22:16:44.812Z,9.17
2018-03-29T22:19:14.692Z,6.23
2018-03-29T22:21:47.949Z,8.40
2018-03-29T22:24:20.522Z,9.27
2018-03-29T22:26:50.968Z,10.17
2018-03-29T22:29:20.996Z,10.40
2018-03-29T22:31:53.860Z,5.97
2018-03-29T22:34:23.743Z,8.00
2018-03-29T22:36:56.520Z,8.53
2018-03-29T22:39:27.852Z,8.20
2018-03-29T22:41:58.445Z,11.63
2018-03-29T22:44:28.946Z,7.50
2018-03-29T22:47:00.858Z,8.73
2018-03-29T22:49:30.182Z,7.17
2018-03-29T22:52:05.668Z,9.80
2018-03-29T22:54:36.606Z,6.67
2018-03-29T22:57:07.148Z,5.27
2018-03-29T22:59:36.538Z,5.93
2018-03-29T23:02:18.999Z,6.00
2018-03-29T23:04:48.828Z,7.07
2018-03-29T23:07:19.487Z,5.83
2018-03-29T23:09:49.833Z,7.90
2018-03-29T23:12:19.356Z,4.83
2018-03-29T23:14:49.099Z,6.20
2018-03-29T23:17:18.916Z,4.40
2018-03-29T23:19:48.752Z,10.47
2018-03-29T23:22:20.528Z,6.57
2018-03-29T23:24:49.972Z,6.53
2018-03-29T23:27:22.643Z,6.07
2018-03-29T23:29:52.967Z,5.10
2018-03-29T23:32:24.701Z,4.77
2018-03-29T23:34:54.456Z,6.63
2018-03-29T23:50:43.975Z,8.93
2018-03-29T23:53:14.082Z,8.10
2018-03-29T23:55:44.691Z,7.67
2018-03-29T23:58:18.705Z,8.53
